WIZ1925 EDLW-EGGW
Flight info
| Callsign | WIZ1925 |
|---|---|
| Flight time | 1h 3m |
| Altitude | 32000 |
| Route | DOMEG3Q DOMEG N853 HMM L602 FLEVO L980 IDRID M40 RINIS |
| Aircraft | A20N/M-SDE2E3FGHIRWXY/LB1 |
Departure
| Time | 2026-05-06 18:27 |
|---|---|
| Airport | Dortmund Airport (EDLW) |
Arrival
| Time | 2026-05-06 19:30 |
|---|---|
| Airport | London Luton Airport (EGGW) |
| Time | Latitude | Longitude | Altitude | Speed | Heading |
|---|---|---|---|---|---|
| 2026-05-06 17:42 | 51.51599 | 7.61365 | 434 ft | 0 kts | 149° |
| 2026-05-06 18:04 | 51.51613 | 7.61352 | 419 ft | 2 kts | 156° |
| 2026-05-06 18:04 | 51.51629 | 7.61342 | 422 ft | 2 kts | 162° |
| 2026-05-06 18:04 | 51.51645 | 7.61336 | 419 ft | 2 kts | 174° |
| 2026-05-06 18:05 | 51.51662 | 7.61336 | 419 ft | 2 kts | 192° |
| 2026-05-06 18:05 | 51.51677 | 7.61345 | 418 ft | 2 kts | 214° |
| 2026-05-06 18:05 | 51.51689 | 7.61363 | 417 ft | 2 kts | 232° |
| 2026-05-06 18:05 | 51.51696 | 7.61377 | 415 ft | 1 kts | 239° |
| 2026-05-06 18:06 | 51.51696 | 7.61379 | 415 ft | 0 kts | 239° |
| 2026-05-06 18:12 | 51.51691 | 7.61365 | 419 ft | 7 kts | 240° |
| 2026-05-06 18:12 | 51.51638 | 7.61216 | 426 ft | 14 kts | 242° |
| 2026-05-06 18:12 | 51.51604 | 7.61115 | 420 ft | 15 kts | 241° |
| 2026-05-06 18:12 | 51.51551 | 7.60940 | 424 ft | 19 kts | 240° |
| 2026-05-06 18:13 | 51.51493 | 7.60781 | 427 ft | 0 kts | 240° |
| 2026-05-06 18:13 | 51.51492 | 7.60779 | 424 ft | 2 kts | 240° |
| 2026-05-06 18:13 | 51.51479 | 7.60740 | 429 ft | 0 kts | 242° |
| 2026-05-06 18:21 | 51.51478 | 7.60739 | 429 ft | 0 kts | 241° |
| 2026-05-06 18:21 | 51.51478 | 7.60738 | 429 ft | 0 kts | 241° |
| 2026-05-06 18:21 | 51.51477 | 7.60736 | 429 ft | 2 kts | 241° |
| 2026-05-06 18:22 | 51.51456 | 7.60675 | 427 ft | 11 kts | 240° |
| 2026-05-06 18:22 | 51.51425 | 7.60579 | 430 ft | 0 kts | 243° |
| 2026-05-06 18:23 | 51.51423 | 7.60573 | 430 ft | 2 kts | 243° |
| 2026-05-06 18:23 | 51.51421 | 7.60568 | 430 ft | 0 kts | 243° |
| 2026-05-06 18:25 | 51.51408 | 7.60527 | 420 ft | 17 kts | 241° |
| 2026-05-06 18:25 | 51.51386 | 7.60286 | 423 ft | 22 kts | 325° |
| 2026-05-06 18:25 | 51.51508 | 7.60303 | 419 ft | 15 kts | 68° |
| 2026-05-06 18:26 | 51.51511 | 7.60335 | 426 ft | 1 kts | 82° |
| 2026-05-06 18:26 | 51.51517 | 7.60353 | 420 ft | 8 kts | 62° |
| 2026-05-06 18:26 | 51.51561 | 7.60460 | 423 ft | 14 kts | 58° |
| 2026-05-06 18:26 | 51.51636 | 7.60668 | 418 ft | 26 kts | 60° |
| 2026-05-06 18:27 | 51.51772 | 7.61048 | 417 ft | 72 kts | 62° |
| 2026-05-06 18:27 | 51.52152 | 7.62122 | 409 ft | 145 kts | 60° |
| 2026-05-06 18:27 | 51.52666 | 7.63634 | 1012 ft | 152 kts | 59° |
| 2026-05-06 18:27 | 51.53182 | 7.65150 | 1788 ft | 162 kts | 59° |
| 2026-05-06 18:28 | 51.53756 | 7.66814 | 2437 ft | 181 kts | 59° |
| 2026-05-06 18:28 | 51.54182 | 7.68029 | 2864 ft | 192 kts | 59° |
| 2026-05-06 18:28 | 51.54869 | 7.69978 | 3542 ft | 210 kts | 59° |
| 2026-05-06 18:28 | 51.55901 | 7.72881 | 4573 ft | 234 kts | 58° |
| 2026-05-06 18:29 | 51.56454 | 7.74438 | 5255 ft | 239 kts | 58° |
| 2026-05-06 18:29 | 51.57313 | 7.76850 | 5764 ft | 268 kts | 58° |
| 2026-05-06 18:29 | 51.58319 | 7.79680 | 5539 ft | 315 kts | 59° |
| 2026-05-06 18:29 | 51.59445 | 7.82854 | 5957 ft | 336 kts | 59° |
| 2026-05-06 18:30 | 51.60597 | 7.86087 | 7276 ft | 326 kts | 58° |
| 2026-05-06 18:30 | 51.61971 | 7.88831 | 8694 ft | 308 kts | 38° |
| 2026-05-06 18:30 | 51.63810 | 7.90391 | 10083 ft | 291 kts | 13° |
| 2026-05-06 18:30 | 51.65815 | 7.90619 | 10976 ft | 294 kts | 352° |
| 2026-05-06 18:31 | 51.67795 | 7.89544 | 11227 ft | 316 kts | 329° |
| 2026-05-06 18:31 | 51.69463 | 7.87093 | 11586 ft | 333 kts | 306° |
| 2026-05-06 18:31 | 51.70421 | 7.83669 | 12339 ft | 339 kts | 284° |
| 2026-05-06 18:31 | 51.70733 | 7.79887 | 13116 ft | 342 kts | 283° |
| 2026-05-06 18:32 | 51.71597 | 7.76320 | 13850 ft | 343 kts | 302° |
| 2026-05-06 18:32 | 51.72979 | 7.73155 | 14500 ft | 347 kts | 308° |
| 2026-05-06 18:32 | 51.74468 | 7.70112 | 15162 ft | 350 kts | 308° |
| 2026-05-06 18:32 | 51.75956 | 7.66973 | 15807 ft | 354 kts | 306° |
| 2026-05-06 18:33 | 51.77405 | 7.63739 | 16456 ft | 358 kts | 305° |
| 2026-05-06 18:33 | 51.78832 | 7.60418 | 17098 ft | 361 kts | 304° |
| 2026-05-06 18:33 | 51.80253 | 7.57037 | 17720 ft | 365 kts | 303° |
| 2026-05-06 18:33 | 51.81681 | 7.53607 | 18313 ft | 370 kts | 303° |
| 2026-05-06 18:34 | 51.83130 | 7.50117 | 18714 ft | 378 kts | 303° |
| 2026-05-06 18:34 | 51.84609 | 7.46549 | 18861 ft | 393 kts | 303° |
| 2026-05-06 18:34 | 51.86169 | 7.42784 | 18888 ft | 411 kts | 303° |
| 2026-05-06 18:34 | 51.87795 | 7.38859 | 18887 ft | 427 kts | 303° |
| 2026-05-06 18:35 | 51.89478 | 7.34792 | 18884 ft | 441 kts | 303° |
| 2026-05-06 18:35 | 51.91205 | 7.30611 | 18894 ft | 444 kts | 302° |
| 2026-05-06 18:35 | 51.92903 | 7.26484 | 18889 ft | 451 kts | 302° |
| 2026-05-06 18:35 | 51.94663 | 7.22203 | 18885 ft | 452 kts | 302° |
| 2026-05-06 18:36 | 51.96358 | 7.18080 | 18891 ft | 427 kts | 302° |
| 2026-05-06 18:36 | 51.97968 | 7.14169 | 18891 ft | 404 kts | 302° |
| 2026-05-06 18:36 | 51.99459 | 7.10523 | 18889 ft | 383 kts | 302° |
| 2026-05-06 18:36 | 52.00897 | 7.06998 | 18886 ft | 363 kts | 302° |
| 2026-05-06 18:37 | 52.02283 | 7.03590 | 18892 ft | 367 kts | 302° |
| 2026-05-06 18:37 | 52.03700 | 7.00102 | 19217 ft | 376 kts | 302° |
| 2026-05-06 18:37 | 52.04026 | 6.99305 | 19366 ft | 376 kts | 302° |
| 2026-05-06 18:37 | 52.04324 | 6.98576 | 19515 ft | 376 kts | 302° |
| 2026-05-06 18:38 | 52.05786 | 6.95010 | 20148 ft | 379 kts | 302° |
| 2026-05-06 18:38 | 52.07248 | 6.91435 | 20742 ft | 382 kts | 302° |
| 2026-05-06 18:38 | 52.08710 | 6.87840 | 21176 ft | 391 kts | 302° |
| 2026-05-06 18:38 | 52.10271 | 6.83985 | 21179 ft | 410 kts | 302° |
| 2026-05-06 18:39 | 52.11845 | 6.80075 | 21157 ft | 427 kts | 301° |
| 2026-05-06 18:39 | 52.13319 | 6.75783 | 21130 ft | 442 kts | 294° |
| 2026-05-06 18:39 | 52.14620 | 6.70537 | 21106 ft | 457 kts | 288° |
| 2026-05-06 18:40 | 52.16691 | 6.61114 | 21045 ft | 473 kts | 289° |
| 2026-05-06 18:40 | 52.17788 | 6.56178 | 20806 ft | 452 kts | 289° |
| 2026-05-06 18:40 | 52.18842 | 6.51474 | 20673 ft | 430 kts | 289° |
| 2026-05-06 18:40 | 52.19848 | 6.46989 | 20723 ft | 406 kts | 289° |
| 2026-05-06 18:41 | 52.20785 | 6.42770 | 20796 ft | 385 kts | 289° |
| 2026-05-06 18:41 | 52.21689 | 6.38658 | 21215 ft | 389 kts | 289° |
| 2026-05-06 18:41 | 52.22599 | 6.34507 | 22076 ft | 386 kts | 289° |
| 2026-05-06 18:41 | 52.23501 | 6.30378 | 22644 ft | 390 kts | 289° |
| 2026-05-06 18:42 | 52.24420 | 6.26154 | 23219 ft | 393 kts | 289° |
| 2026-05-06 18:42 | 52.25325 | 6.21987 | 23738 ft | 396 kts | 289° |
| 2026-05-06 18:42 | 52.26249 | 6.17726 | 24203 ft | 400 kts | 288° |
| 2026-05-06 18:42 | 52.27186 | 6.13397 | 24669 ft | 402 kts | 288° |
| 2026-05-06 18:43 | 52.28121 | 6.09061 | 25119 ft | 405 kts | 288° |
| 2026-05-06 18:43 | 52.29046 | 6.04743 | 25577 ft | 408 kts | 288° |
| 2026-05-06 18:43 | 52.29986 | 6.00357 | 26022 ft | 411 kts | 288° |
| 2026-05-06 18:43 | 52.30937 | 5.95919 | 26453 ft | 413 kts | 288° |
| 2026-05-06 18:44 | 52.31890 | 5.91467 | 26885 ft | 416 kts | 288° |
| 2026-05-06 18:44 | 52.32842 | 5.87015 | 27299 ft | 419 kts | 288° |
| 2026-05-06 18:44 | 52.33812 | 5.82475 | 27701 ft | 421 kts | 288° |
| 2026-05-06 18:44 | 52.34770 | 5.77976 | 28095 ft | 423 kts | 287° |
| 2026-05-06 18:45 | 52.35740 | 5.73409 | 28468 ft | 426 kts | 288° |
| 2026-05-06 18:45 | 52.36726 | 5.68788 | 28842 ft | 428 kts | 288° |
| 2026-05-06 18:45 | 52.37611 | 5.64133 | 29196 ft | 429 kts | 281° |
| 2026-05-06 18:45 | 52.38033 | 5.59347 | 29525 ft | 430 kts | 272° |
| 2026-05-06 18:46 | 52.37967 | 5.54458 | 29866 ft | 431 kts | 263° |
| 2026-05-06 18:46 | 52.37505 | 5.49601 | 30202 ft | 432 kts | 260° |
| 2026-05-06 18:46 | 52.37020 | 5.44726 | 30476 ft | 435 kts | 260° |
| 2026-05-06 18:46 | 52.36538 | 5.39816 | 30788 ft | 436 kts | 260° |
| 2026-05-06 18:47 | 52.36055 | 5.34892 | 31099 ft | 438 kts | 260° |
| 2026-05-06 18:47 | 52.35607 | 5.30371 | 31454 ft | 438 kts | 260° |
| 2026-05-06 18:47 | 52.35124 | 5.25518 | 31798 ft | 437 kts | 260° |
| 2026-05-06 18:47 | 52.34633 | 5.20615 | 31910 ft | 436 kts | 260° |
| 2026-05-06 18:48 | 52.34139 | 5.15725 | 31917 ft | 435 kts | 260° |
| 2026-05-06 18:48 | 52.32861 | 5.06115 | 31934 ft | 434 kts | 251° |
| 2026-05-06 18:49 | 52.30917 | 4.96718 | 31938 ft | 434 kts | 251° |
| 2026-05-06 18:49 | 52.29002 | 4.87395 | 31936 ft | 433 kts | 251° |
| 2026-05-06 18:50 | 52.27102 | 4.78192 | 31939 ft | 434 kts | 251° |
| 2026-05-06 18:50 | 52.25164 | 4.68852 | 31941 ft | 434 kts | 251° |
| 2026-05-06 18:51 | 52.23220 | 4.59526 | 31937 ft | 434 kts | 251° |
| 2026-05-06 18:51 | 52.21266 | 4.50200 | 31934 ft | 434 kts | 251° |
| 2026-05-06 18:52 | 52.19315 | 4.40926 | 31936 ft | 434 kts | 251° |
| 2026-05-06 18:52 | 52.17346 | 4.31615 | 31936 ft | 433 kts | 251° |
| 2026-05-06 18:53 | 52.15385 | 4.22379 | 31940 ft | 433 kts | 251° |
| 2026-05-06 18:53 | 52.13409 | 4.13118 | 31941 ft | 432 kts | 251° |
| 2026-05-06 18:54 | 52.11421 | 4.03847 | 31944 ft | 432 kts | 251° |
| 2026-05-06 18:54 | 52.09447 | 3.94686 | 31946 ft | 430 kts | 251° |
| 2026-05-06 18:55 | 52.07457 | 3.85474 | 31948 ft | 430 kts | 250° |
| 2026-05-06 18:55 | 52.05474 | 3.76343 | 31953 ft | 428 kts | 250° |
| 2026-05-06 18:56 | 52.03488 | 3.67254 | 31957 ft | 429 kts | 250° |
| 2026-05-06 18:56 | 52.01475 | 3.58079 | 31953 ft | 431 kts | 250° |
| 2026-05-06 18:57 | 51.99615 | 3.48873 | 31951 ft | 432 kts | 257° |
| 2026-05-06 18:57 | 51.98641 | 3.39271 | 31954 ft | 428 kts | 261° |
| 2026-05-06 18:58 | 51.97753 | 3.29763 | 31953 ft | 427 kts | 261° |
| 2026-05-06 18:58 | 51.96847 | 3.20234 | 31954 ft | 431 kts | 261° |
| 2026-05-06 18:59 | 51.96038 | 3.10562 | 31958 ft | 432 kts | 264° |
| 2026-05-06 18:59 | 51.95467 | 3.00869 | 31963 ft | 432 kts | 264° |
| 2026-05-06 19:00 | 51.94860 | 2.91141 | 31962 ft | 433 kts | 264° |
| 2026-05-06 19:00 | 51.94222 | 2.81472 | 31968 ft | 432 kts | 264° |
| 2026-05-06 19:01 | 51.93569 | 2.71789 | 31968 ft | 432 kts | 264° |
| 2026-05-06 19:01 | 51.92912 | 2.62149 | 31973 ft | 433 kts | 264° |
| 2026-05-06 19:02 | 51.92240 | 2.52410 | 31971 ft | 433 kts | 263° |
| 2026-05-06 19:02 | 51.91567 | 2.42758 | 31973 ft | 432 kts | 263° |
| 2026-05-06 19:03 | 51.91536 | 2.33057 | 31979 ft | 434 kts | 281° |
| 2026-05-06 19:03 | 51.92463 | 2.28389 | 31981 ft | 435 kts | 294° |
| 2026-05-06 19:03 | 51.93979 | 2.24225 | 31980 ft | 437 kts | 306° |
| 2026-05-06 19:03 | 51.96076 | 2.20604 | 31982 ft | 440 kts | 319° |
| 2026-05-06 19:04 | 51.98622 | 2.17809 | 31988 ft | 443 kts | 331° |
| 2026-05-06 19:04 | 52.01513 | 2.15962 | 31984 ft | 447 kts | 343° |
| 2026-05-06 19:04 | 52.04569 | 2.15174 | 31981 ft | 450 kts | 356° |
| 2026-05-06 19:04 | 52.07714 | 2.15472 | 31983 ft | 454 kts | 8° |
| 2026-05-06 19:05 | 52.10785 | 2.16570 | 31984 ft | 455 kts | 9° |
| 2026-05-06 19:05 | 52.13922 | 2.17145 | 31986 ft | 452 kts | 358° |
| 2026-05-06 19:05 | 52.17058 | 2.16749 | 31989 ft | 449 kts | 348° |
| 2026-05-06 19:06 | 52.23068 | 2.14182 | 31988 ft | 447 kts | 339° |
| 2026-05-06 19:06 | 52.28610 | 2.09919 | 31993 ft | 442 kts | 320° |
| 2026-05-06 19:06 | 52.30845 | 2.06504 | 31993 ft | 439 kts | 308° |
| 2026-05-06 19:07 | 52.32560 | 2.02385 | 31994 ft | 436 kts | 296° |
| 2026-05-06 19:07 | 52.34113 | 1.92933 | 31996 ft | 431 kts | 271° |
| 2026-05-06 19:07 | 52.33890 | 1.88093 | 31990 ft | 431 kts | 258° |
| 2026-05-06 19:08 | 52.33005 | 1.83431 | 31995 ft | 431 kts | 246° |
| 2026-05-06 19:08 | 52.31495 | 1.79194 | 31999 ft | 432 kts | 233° |
| 2026-05-06 19:08 | 52.29452 | 1.75615 | 32000 ft | 434 kts | 223° |
| 2026-05-06 19:09 | 52.25305 | 1.68434 | 31998 ft | 433 kts | 236° |
| 2026-05-06 19:09 | 52.22374 | 1.59939 | 31998 ft | 432 kts | 245° |
| 2026-05-06 19:10 | 52.19927 | 1.50981 | 32001 ft | 432 kts | 247° |
| 2026-05-06 19:10 | 52.17577 | 1.42010 | 31996 ft | 432 kts | 251° |
| 2026-05-06 19:10 | 52.16831 | 1.37273 | 31999 ft | 432 kts | 262° |
| 2026-05-06 19:11 | 52.16648 | 1.34038 | 31999 ft | 432 kts | 268° |
| 2026-05-06 19:11 | 52.17239 | 1.24292 | 31997 ft | 432 kts | 277° |
| 2026-05-06 19:12 | 52.18012 | 1.14596 | 31997 ft | 432 kts | 276° |
| 2026-05-06 19:12 | 52.18769 | 1.04871 | 31994 ft | 432 kts | 276° |
| 2026-05-06 19:13 | 52.19516 | 0.95184 | 31993 ft | 431 kts | 276° |
| 2026-05-06 19:13 | 52.20259 | 0.85440 | 31993 ft | 431 kts | 276° |
| 2026-05-06 19:14 | 52.20989 | 0.75752 | 31999 ft | 431 kts | 276° |
| 2026-05-06 19:14 | 52.21708 | 0.66087 | 32008 ft | 430 kts | 276° |
| 2026-05-06 19:15 | 52.22420 | 0.56410 | 32009 ft | 430 kts | 276° |
| 2026-05-06 19:15 | 52.23122 | 0.46762 | 32010 ft | 430 kts | 276° |
| 2026-05-06 19:16 | 52.23819 | 0.37058 | 31980 ft | 425 kts | 276° |
| 2026-05-06 19:16 | 52.24157 | 0.32318 | 31856 ft | 412 kts | 276° |
| 2026-05-06 19:16 | 52.24481 | 0.27749 | 31681 ft | 393 kts | 276° |
| 2026-05-06 19:16 | 52.24784 | 0.23465 | 31505 ft | 374 kts | 276° |
| 2026-05-06 19:17 | 52.25073 | 0.19348 | 31338 ft | 355 kts | 276° |
| 2026-05-06 19:17 | 52.25346 | 0.15435 | 31153 ft | 338 kts | 275° |
| 2026-05-06 19:17 | 52.25607 | 0.11672 | 30663 ft | 330 kts | 275° |
| 2026-05-06 19:17 | 52.25862 | 0.07965 | 30062 ft | 326 kts | 275° |
| 2026-05-06 19:18 | 52.26110 | 0.04348 | 29368 ft | 323 kts | 275° |
| 2026-05-06 19:18 | 52.26357 | 0.00732 | 28712 ft | 319 kts | 275° |
| 2026-05-06 19:18 | 52.26506 | -0.02870 | 27995 ft | 315 kts | 264° |
| 2026-05-06 19:18 | 52.25949 | -0.06382 | 26729 ft | 330 kts | 244° |
| 2026-05-06 19:19 | 52.24547 | -0.09485 | 25239 ft | 353 kts | 224° |
| 2026-05-06 19:19 | 52.22435 | -0.11766 | 23714 ft | 378 kts | 205° |
| 2026-05-06 19:19 | 52.19852 | -0.13056 | 22137 ft | 395 kts | 194° |
| 2026-05-06 19:19 | 52.17189 | -0.13986 | 21224 ft | 392 kts | 194° |
| 2026-05-06 19:20 | 52.14556 | -0.15018 | 20382 ft | 386 kts | 197° |
| 2026-05-06 19:20 | 52.12014 | -0.16345 | 19525 ft | 380 kts | 206° |
| 2026-05-06 19:20 | 52.09744 | -0.18488 | 18730 ft | 373 kts | 219° |
| 2026-05-06 19:20 | 52.07881 | -0.21280 | 18359 ft | 367 kts | 230° |
| 2026-05-06 19:21 | 52.06180 | -0.24434 | 18195 ft | 371 kts | 230° |
| 2026-05-06 19:21 | 52.04513 | -0.27659 | 18165 ft | 369 kts | 238° |
| 2026-05-06 19:21 | 52.03190 | -0.31177 | 18139 ft | 367 kts | 240° |
| 2026-05-06 19:21 | 52.01876 | -0.34724 | 17774 ft | 364 kts | 240° |
| 2026-05-06 19:22 | 52.00578 | -0.38232 | 17129 ft | 361 kts | 241° |
| 2026-05-06 19:22 | 51.99283 | -0.41746 | 16337 ft | 358 kts | 240° |
| 2026-05-06 19:22 | 51.97993 | -0.45111 | 15536 ft | 355 kts | 237° |
| 2026-05-06 19:22 | 51.96488 | -0.48275 | 14734 ft | 352 kts | 233° |
| 2026-05-06 19:23 | 51.94965 | -0.51390 | 13954 ft | 349 kts | 234° |
| 2026-05-06 19:23 | 51.93484 | -0.54440 | 13146 ft | 345 kts | 234° |
| 2026-05-06 19:23 | 51.92004 | -0.57491 | 12334 ft | 342 kts | 234° |
| 2026-05-06 19:23 | 51.90639 | -0.60621 | 11532 ft | 337 kts | 242° |
| 2026-05-06 19:24 | 51.89658 | -0.64031 | 10748 ft | 332 kts | 252° |
| 2026-05-06 19:24 | 51.89013 | -0.67616 | 9999 ft | 328 kts | 256° |
| 2026-05-06 19:24 | 51.88165 | -0.70952 | 9637 ft | 315 kts | 237° |
| 2026-05-06 19:24 | 51.86674 | -0.73340 | 9431 ft | 298 kts | 213° |
| 2026-05-06 19:25 | 51.84775 | -0.74491 | 9026 ft | 290 kts | 188° |
| 2026-05-06 19:25 | 51.82798 | -0.74109 | 8416 ft | 288 kts | 155° |
| 2026-05-06 19:25 | 51.81267 | -0.72126 | 7824 ft | 283 kts | 122° |
| 2026-05-06 19:25 | 51.80649 | -0.69182 | 7246 ft | 276 kts | 89° |
| 2026-05-06 19:26 | 51.81110 | -0.66288 | 6695 ft | 270 kts | 59° |
| 2026-05-06 19:26 | 51.82104 | -0.63744 | 6229 ft | 264 kts | 56° |
| 2026-05-06 19:26 | 51.83042 | -0.61171 | 5515 ft | 262 kts | 63° |
| 2026-05-06 19:26 | 51.83683 | -0.58449 | 4806 ft | 263 kts | 75° |
| 2026-05-06 19:27 | 51.84123 | -0.55570 | 4101 ft | 260 kts | 74° |
| 2026-05-06 19:27 | 51.84597 | -0.52814 | 3591 ft | 241 kts | 71° |
| 2026-05-06 19:27 | 51.85017 | -0.50464 | 3546 ft | 192 kts | 71° |
| 2026-05-06 19:27 | 51.85359 | -0.48508 | 3050 ft | 172 kts | 70° |
| 2026-05-06 19:28 | 51.85681 | -0.46667 | 2389 ft | 167 kts | 69° |
| 2026-05-06 19:28 | 51.86034 | -0.44935 | 1874 ft | 158 kts | 67° |
| 2026-05-06 19:28 | 51.86325 | -0.43244 | 1458 ft | 154 kts | 71° |
| 2026-05-06 19:28 | 51.86595 | -0.41640 | 1118 ft | 145 kts | 68° |
| 2026-05-06 19:29 | 51.86881 | -0.40103 | 924 ft | 139 kts | 72° |
| 2026-05-06 19:29 | 51.87155 | -0.38616 | 632 ft | 138 kts | 68° |
| 2026-05-06 19:29 | 51.87402 | -0.37192 | 521 ft | 119 kts | 71° |
| 2026-05-06 19:29 | 51.87482 | -0.36774 | 522 ft | 70 kts | 74° |
| 2026-05-06 19:30 | 51.87528 | -0.36498 | 521 ft | 11 kts | 74° |
| 2026-05-06 19:31 | 51.87575 | -0.36250 | 519 ft | 33 kts | 72° |
| 2026-05-06 19:31 | 51.87643 | -0.35929 | 517 ft | 13 kts | 37° |
| 2026-05-06 19:31 | 51.87731 | -0.35942 | 518 ft | 0 kts | 341° |
| 2026-05-06 19:32 | 51.87736 | -0.35945 | 518 ft | 2 kts | 341° |
| 2026-05-06 19:32 | 51.87758 | -0.35965 | 518 ft | 6 kts | 323° |
| 2026-05-06 19:32 | 51.87779 | -0.36095 | 519 ft | 11 kts | 257° |
| 2026-05-06 19:32 | 51.87767 | -0.36175 | 519 ft | 4 kts | 256° |
| 2026-05-06 19:33 | 51.87765 | -0.36191 | 519 ft | 4 kts | 256° |
| 2026-05-06 19:33 | 51.87713 | -0.36506 | 520 ft | 39 kts | 258° |
| 2026-05-06 19:33 | 51.87658 | -0.36835 | 520 ft | 21 kts | 256° |
| 2026-05-06 19:33 | 51.87701 | -0.36966 | 521 ft | 11 kts | 354° |
| 2026-05-06 19:34 | 51.87806 | -0.37016 | 520 ft | 22 kts | 342° |
| 2026-05-06 19:34 | 51.87962 | -0.37096 | 520 ft | 24 kts | 342° |
| 2026-05-06 19:34 | 51.88039 | -0.37233 | 521 ft | 0 kts | 249° |
| 2026-05-06 19:34 | 51.88006 | -0.37296 | 521 ft | 14 kts | 186° |
| 2026-05-06 19:35 | 51.87969 | -0.37266 | 521 ft | 0 kts | 171° |